Time;durP1;ratioP1;P1;durP2;ratioP2;P2;SDS_P1;SDS_P2;PMS_P1;PMS_P2;Temp;Humidity;BMP_temperature;BMP_pressure;BME280_temperature;BME280_humidity;BME280_pressure;Samples;Min_cycle;Max_cycle;Signal;HPM_P1;HPM_P2
2023/10/02 04:07:11;;;;;;;;;15.67;12.33;;;;;;;;5585882;39;10001473;-54
2023/10/02 04:13:25;;;;;;;;;16.67;11.67;;;;;;;;6492880;39;8905;-56
2023/10/02 04:19:33;;;;;;;;;11.00;10.67;;;;;;;;6493910;39;8897;-53
2023/10/02 04:25:35;;;;;;;;;12.00;11.00;;;;;;;;6493267;39;8917;-56
2023/10/02 04:31:44;;;;;;;;;8.00;8.00;;;;;;;;6491625;39;9049;-56
2023/10/02 04:37:48;;;;;;;;;11.67;9.33;;;;;;;;6492492;39;9095;-57
2023/10/02 04:43:57;;;;;;;;;12.33;11.33;;;;;;;;6493065;39;9567;-54
2023/10/02 05:02:23;;;;;;;;;17.33;13.00;;;;;;;;6492356;31;9020;-55
2023/10/02 05:08:40;;;;;;;;;14.00;12.00;;;;;;;;6493949;31;8901;-56
2023/10/02 05:14:52;;;;;;;;;11.00;11.00;;;;;;;;6491852;39;8871;-55
2023/10/02 05:20:56;;;;;;;;;13.33;12.33;;;;;;;;6492787;39;9484;-56
2023/10/02 05:26:59;;;;;;;;;12.00;12.00;;;;;;;;6491796;39;8893;-57
2023/10/02 05:33:07;;;;;;;;;11.67;11.67;;;;;;;;6492385;39;8861;-57
2023/10/02 05:39:28;;;;;;;;;13.67;12.00;;;;;;;;6491849;39;8878;-59
2023/10/02 05:51:55;;;;;;;;;11.33;9.67;;;;;;;;6490614;47;8815;-57
2023/10/02 05:57:59;;;;;;;;;12.00;11.00;;;;;;;;6491107;47;8836;-57
2023/10/02 06:04:05;;;;;;;;;16.00;15.33;;;;;;;;6489802;39;9020;-58
2023/10/02 06:10:09;;;;;;;;;9.33;7.67;;;;;;;;6490813;31;9013;-59
2023/10/02 06:16:11;;;;;;;;;10.33;10.33;;;;;;;;6492011;39;8878;-56
2023/10/02 06:22:19;;;;;;;;;12.00;11.33;;;;;;;;6490884;39;9020;-59
2023/10/02 06:28:27;;;;;;;;;16.00;11.67;;;;;;;;6491703;39;8984;-59
2023/10/02 06:34:38;;;;;;;;;11.33;11.00;;;;;;;;6492422;46;8912;-60
2023/10/02 06:40:56;;;;;;;;;12.00;11.67;;;;;;;;6492788;39;9527;-57
2023/10/02 06:47:04;;;;;;;;;11.67;11.67;;;;;;;;6492153;39;8978;-58
2023/10/02 06:53:10;;;;;;;;;14.00;13.67;;;;;;;;6491169;31;8943;-58
2023/10/02 06:59:14;;;;;;;;;14.67;11.00;;;;;;;;6492455;31;8985;-57
2023/10/02 07:05:19;;;;;;;;;13.67;13.67;;;;;;;;6491757;39;8976;-59
2023/10/02 07:11:23;;;;;;;;;13.33;11.67;;;;;;;;6491802;46;8869;-58
2023/10/02 07:17:26;;;;;;;;;3.00;2.33;;;;;;;;6492600;39;9680;-57
2023/10/02 07:23:31;;;;;;;;;11.33;9.67;;;;;;;;6489447;31;8972;-58
2023/10/02 07:29:39;;;;;;;;;14.00;12.00;;;;;;;;6491498;31;8959;-58
2023/10/02 07:35:53;;;;;;;;;6.67;6.00;;;;;;;;6492944;31;9149;-58
2023/10/02 07:42:04;;;;;;;;;21.67;19.67;;;;;;;;6490825;31;8898;-58
2023/10/02 07:48:19;;;;;;;;;14.00;13.00;;;;;;;;6491463;31;8907;-57
2023/10/02 07:54:44;;;;;;;;;13.00;13.00;;;;;;;;6491673;31;8925;-55
2023/10/02 08:00:49;;;;;;;;;7.67;6.33;;;;;;;;6491765;39;9015;-59
2023/10/02 08:06:54;;;;;;;;;8.67;8.67;;;;;;;;6489174;39;8930;-58
2023/10/02 08:13:35;;;;;;;;;13.33;11.33;;;;;;;;6489622;39;8932;-61
2023/10/02 08:19:39;;;;;;;;;9.25;9.25;;;;;;;;6489303;31;8970;-59
2023/10/02 08:25:43;;;;;;;;;10.00;10.00;;;;;;;;6490975;31;9000;-57
2023/10/02 08:31:49;;;;;;;;;11.33;10.00;;;;;;;;6490346;31;9022;-60
2023/10/02 08:37:59;;;;;;;;;12.00;9.33;;;;;;;;6490899;39;8933;-58
2023/10/02 08:44:03;;;;;;;;;7.00;4.50;;;;;;;;6490530;31;8933;-57
2023/10/02 08:50:11;;;;;;;;;10.33;10.00;;;;;;;;6488234;31;9114;-61
2023/10/02 08:56:22;;;;;;;;;9.00;9.00;;;;;;;;6490780;39;8984;-58
2023/10/02 09:02:26;;;;;;;;;10.33;9.00;;;;;;;;6488872;39;8965;-58
2023/10/02 09:09:12;;;;;;;;;11.67;9.67;;;;;;;;6506318;36;8880;-60
2023/10/02 09:15:24;;;;;;;;;8.75;7.25;;;;;;;;6490684;39;8912;-58
2023/10/02 09:21:46;;;;;;;;;7.75;7.75;;;;;;;;6490793;47;8921;-58
2023/10/02 09:27:56;;;;;;;;;14.33;12.33;;;;;;;;6490302;31;8998;-60
2023/10/02 09:34:10;;;;;;;;;9.00;8.00;;;;;;;;6487279;47;8998;-58
2023/10/02 09:47:09;;;;;;;;;10.25;10.00;;;;;;;;6489226;31;9554;-55
2023/10/02 09:53:18;;;;;;;;;14.50;12.75;;;;;;;;6489317;31;8958;-57
2023/10/02 09:59:27;;;;;;;;;11.25;10.00;;;;;;;;6486010;39;9021;-59
2023/10/02 10:05:48;;;;;;;;;24.33;23.33;;;;;;;;6488412;31;8914;-62
2023/10/02 10:12:56;;;;;;;;;8.50;6.00;;;;;;;;6489773;31;8915;-60
2023/10/02 10:31:33;;;;;;;;;29.00;24.67;;;;;;;;6489560;39;8933;-59
2023/10/02 10:37:41;;;;;;;;;16.25;15.25;;;;;;;;6489841;31;9049;-61
2023/10/02 10:43:44;;;;;;;;;10.25;9.00;;;;;;;;6490550;39;9034;-62
2023/10/02 10:50:11;;;;;;;;;11.50;9.25;;;;;;;;6490656;46;8912;-60
2023/10/02 10:56:22;;;;;;;;;8.50;8.25;;;;;;;;6488931;39;9575;-62
2023/10/02 11:02:33;;;;;;;;;8.00;8.00;;;;;;;;6489800;39;9001;-60
2023/10/02 11:08:38;;;;;;;;;9.75;8.00;;;;;;;;6490591;31;9051;-62
2023/10/02 11:14:44;;;;;;;;;9.75;8.50;;;;;;;;6485856;39;8903;-62
2023/10/02 11:20:49;;;;;;;;;4.00;4.00;;;;;;;;6486953;39;8950;-61
2023/10/02 11:27:07;;;;;;;;;10.25;8.75;;;;;;;;6490940;39;8943;-60
2023/10/02 11:33:09;;;;;;;;;10.75;10.75;;;;;;;;6488183;39;9616;-60
2023/10/02 11:39:19;;;;;;;;;8.75;8.75;;;;;;;;6487888;31;8998;-61
2023/10/02 11:45:24;;;;;;;;;11.25;9.50;;;;;;;;6487494;46;8978;-61
2023/10/02 11:51:33;;;;;;;;;10.00;9.50;;;;;;;;6487614;31;8940;-62
2023/10/02 11:57:37;;;;;;;;;11.50;10.50;;;;;;;;6489237;39;8944;-61
2023/10/02 12:03:41;;;;;;;;;11.25;11.25;;;;;;;;6489359;39;9602;-59
2023/10/02 12:09:53;;;;;;;;;11.75;8.00;;;;;;;;6488375;46;8995;-61
2023/10/02 12:16:02;;;;;;;;;11.00;11.00;;;;;;;;6487334;46;8927;-61
2023/10/02 12:22:07;;;;;;;;;10.75;9.75;;;;;;;;6488611;31;9592;-60
2023/10/02 12:28:15;;;;;;;;;11.75;10.25;;;;;;;;6486232;39;9321;-60
2023/10/02 12:34:18;;;;;;;;;23.50;16.50;;;;;;;;6488112;31;9586;-60
2023/10/02 12:40:31;;;;;;;;;11.00;10.25;;;;;;;;6486836;46;8939;-59
2023/10/02 12:46:43;;;;;;;;;6.50;4.00;;;;;;;;6488104;39;9014;-61
2023/10/02 12:52:47;;;;;;;;;13.00;11.75;;;;;;;;6487157;39;9122;-60
2023/10/02 12:58:54;;;;;;;;;12.50;12.50;;;;;;;;6487530;31;9005;-61
2023/10/02 13:05:04;;;;;;;;;11.50;11.50;;;;;;;;6488611;39;8924;-60
2023/10/02 13:11:13;;;;;;;;;8.75;8.75;;;;;;;;6487219;39;9003;-61
2023/10/02 13:17:19;;;;;;;;;13.25;13.25;;;;;;;;6488194;39;9621;-61
2023/10/02 13:23:25;;;;;;;;;13.25;13.25;;;;;;;;6487276;39;8951;-61
2023/10/02 13:29:29;;;;;;;;;17.75;16.75;;;;;;;;6486363;31;8960;-59
2023/10/02 13:35:39;;;;;;;;;13.50;13.50;;;;;;;;6488946;31;8871;-61
2023/10/02 13:41:45;;;;;;;;;14.00;12.50;;;;;;;;6491628;31;9011;-59
2023/10/02 13:47:48;;;;;;;;;12.75;11.75;;;;;;;;6490376;39;8992;-60
2023/10/02 13:53:53;;;;;;;;;22.25;18.50;;;;;;;;6491374;39;8888;-61
2023/10/02 13:59:56;;;;;;;;;14.75;13.00;;;;;;;;6490203;39;9042;-61
2023/10/02 14:06:06;;;;;;;;;13.50;12.25;;;;;;;;6490263;39;8946;-59
2023/10/02 14:12:15;;;;;;;;;10.25;10.25;;;;;;;;6489498;39;8903;-56
2023/10/02 14:18:18;;;;;;;;;13.50;11.00;;;;;;;;6491944;31;8931;-58
2023/10/02 14:24:25;;;;;;;;;13.00;13.00;;;;;;;;6490169;46;8922;-58
2023/10/02 14:30:28;;;;;;;;;16.00;13.00;;;;;;;;6490546;39;9015;-57
2023/10/02 14:36:30;;;;;;;;;14.00;14.00;;;;;;;;6489757;39;8915;-56
2023/10/02 14:42:40;;;;;;;;;14.00;13.00;;;;;;;;6489774;39;9046;-55
2023/10/02 14:48:46;;;;;;;;;15.50;14.50;;;;;;;;6491707;39;9665;-56
2023/10/02 14:54:50;;;;;;;;;10.25;9.50;;;;;;;;6490693;39;8863;-57
2023/10/02 15:00:54;;;;;;;;;14.50;13.00;;;;;;;;6489261;46;8962;-58
2023/10/02 15:07:00;;;;;;;;;6.00;6.00;;;;;;;;6491129;39;8883;-58
2023/10/02 15:13:04;;;;;;;;;9.67;9.33;;;;;;;;6489323;46;8864;-57
2023/10/02 15:19:15;;;;;;;;;15.00;11.67;;;;;;;;6491221;39;8875;-58
2023/10/02 15:25:20;;;;;;;;;17.00;17.00;;;;;;;;6491064;39;9002;-56
2023/10/02 15:31:23;;;;;;;;;12.67;12.67;;;;;;;;6490231;46;8995;-58
2023/10/02 15:37:25;;;;;;;;;12.00;11.33;;;;;;;;6489282;46;8966;-56
2023/10/02 15:43:31;;;;;;;;;13.00;13.00;;;;;;;;6489177;46;8942;-56
2023/10/02 15:49:34;;;;;;;;;12.33;12.33;;;;;;;;6490494;39;8873;-57
2023/10/02 15:55:37;;;;;;;;;15.67;15.33;;;;;;;;6491373;31;8879;-58
2023/10/02 16:01:39;;;;;;;;;14.00;14.00;;;;;;;;6490368;39;8925;-56
2023/10/02 16:07:42;;;;;;;;;13.00;12.67;;;;;;;;6490452;39;8875;-55
2023/10/02 16:13:52;;;;;;;;;12.67;12.67;;;;;;;;6488915;39;8840;-56
2023/10/02 16:19:56;;;;;;;;;22.33;21.33;;;;;;;;6488667;39;8915;-57
2023/10/02 16:25:58;;;;;;;;;14.00;12.00;;;;;;;;6488143;31;8877;-56
2023/10/02 16:32:04;;;;;;;;;20.00;20.00;;;;;;;;6490187;46;8923;-56
2023/10/02 16:38:11;;;;;;;;;19.33;16.67;;;;;;;;6489494;39;9516;-58
2023/10/02 16:44:15;;;;;;;;;20.67;18.67;;;;;;;;6489408;39;9495;-56
2023/10/02 16:50:20;;;;;;;;;22.33;19.33;;;;;;;;6490140;39;8915;-54
2023/10/02 16:56:23;;;;;;;;;18.00;17.00;;;;;;;;6490080;39;8930;-55
2023/10/02 17:02:27;;;;;;;;;20.50;15.50;;;;;;;;6488707;39;9035;-55
2023/10/02 17:08:34;;;;;;;;;19.00;18.00;;;;;;;;6490049;39;9345;-55
2023/10/02 17:14:39;;;;;;;;;19.00;18.33;;;;;;;;6488783;39;8876;-58
2023/10/02 17:20:47;;;;;;;;;19.67;18.67;;;;;;;;6490604;39;9549;-57
2023/10/02 17:26:51;;;;;;;;;19.00;16.67;;;;;;;;6489273;47;8868;-56
2023/10/02 17:32:56;;;;;;;;;15.00;12.33;;;;;;;;6489863;39;9573;-54
2023/10/02 17:38:59;;;;;;;;;64.00;52.25;;;;;;;;6489556;39;9504;-54
2023/10/02 17:45:03;;;;;;;;;41.00;35.33;;;;;;;;6488733;31;8982;-54
2023/10/02 17:51:07;;;;;;;;;27.67;25.67;;;;;;;;6307442;39;10001057;-57
2023/10/02 17:57:17;;;;;;;;;30.33;28.33;;;;;;;;6488281;31;8864;-55
2023/10/02 18:03:21;;;;;;;;;24.50;22.00;;;;;;;;6488412;39;8888;-54
2023/10/02 18:09:24;;;;;;;;;19.67;18.00;;;;;;;;6488434;31;8950;-55
2023/10/02 18:15:28;;;;;;;;;36.00;33.00;;;;;;;;6488138;47;8888;-54
2023/10/02 18:21:34;;;;;;;;;19.67;17.00;;;;;;;;6489110;39;8974;-54
2023/10/02 18:27:37;;;;;;;;;15.67;15.67;;;;;;;;6490549;46;8943;-53
2023/10/02 18:33:40;;;;;;;;;19.00;17.00;;;;;;;;6492103;39;9035;-56
2023/10/02 18:39:44;;;;;;;;;17.00;15.67;;;;;;;;6491186;39;8861;-53
2023/10/02 18:45:50;;;;;;;;;25.00;21.00;;;;;;;;6491050;39;8914;-58
2023/10/02 18:52:04;;;;;;;;;23.67;19.00;;;;;;;;6491339;39;9464;-54
2023/10/02 18:58:10;;;;;;;;;20.00;18.67;;;;;;;;6490443;39;8888;-58
2023/10/02 19:04:18;;;;;;;;;20.00;20.00;;;;;;;;6490641;37;9506;-56
2023/10/02 19:10:21;;;;;;;;;16.33;16.33;;;;;;;;6490694;39;8918;-55
2023/10/02 19:16:25;;;;;;;;;16.33;15.00;;;;;;;;6490394;31;8919;-59
2023/10/02 19:22:28;;;;;;;;;16.33;15.00;;;;;;;;6489823;46;8932;-57
2023/10/02 19:28:32;;;;;;;;;15.33;12.67;;;;;;;;6490602;46;8903;-56
2023/10/02 19:34:37;;;;;;;;;15.67;15.67;;;;;;;;6491457;31;8832;-57
2023/10/02 19:40:40;;;;;;;;;10.00;8.67;;;;;;;;6490014;39;8917;-55
2023/10/02 19:46:42;;;;;;;;;14.67;14.67;;;;;;;;6490560;46;8860;-55
2023/10/02 19:52:45;;;;;;;;;15.00;14.00;;;;;;;;6490935;31;8889;-57
2023/10/02 19:58:49;;;;;;;;;13.00;13.00;;;;;;;;6490591;31;8903;-55
2023/10/02 20:04:52;;;;;;;;;18.00;16.67;;;;;;;;6490282;46;8913;-54
2023/10/02 20:11:00;;;;;;;;;17.00;15.33;;;;;;;;6490132;39;8820;-54
2023/10/02 20:17:05;;;;;;;;;15.00;15.00;;;;;;;;6490334;46;8876;-54
2023/10/02 20:23:09;;;;;;;;;19.33;17.00;;;;;;;;6489405;46;8907;-56
2023/10/02 20:29:15;;;;;;;;;19.67;18.00;;;;;;;;6490193;39;9658;-55
2023/10/02 20:35:17;;;;;;;;;14.33;12.33;;;;;;;;6489995;39;8883;-56
2023/10/02 20:41:27;;;;;;;;;17.33;14.00;;;;;;;;6489269;46;9023;-55
2023/10/02 20:47:34;;;;;;;;;16.67;14.33;;;;;;;;6488820;31;8863;-56
2023/10/02 20:53:39;;;;;;;;;16.33;15.00;;;;;;;;6489422;39;8883;-55
2023/10/02 20:59:43;;;;;;;;;18.33;17.67;;;;;;;;6489068;39;8930;-55
2023/10/02 21:05:48;;;;;;;;;14.00;14.00;;;;;;;;6488693;39;8904;-57
2023/10/02 21:11:53;;;;;;;;;20.00;15.00;;;;;;;;6489409;39;8901;-56
2023/10/02 21:17:57;;;;;;;;;15.50;14.00;;;;;;;;6488772;46;8914;-55
2023/10/02 21:24:05;;;;;;;;;16.00;13.00;;;;;;;;5910258;36;10010804;-56
2023/10/02 21:30:12;;;;;;;;;16.33;15.67;;;;;;;;5362850;36;20001684;-56
2023/10/02 21:36:15;;;;;;;;;12.67;10.33;;;;;;;;6488748;47;8891;-56
2023/10/02 21:42:20;;;;;;;;;18.00;15.00;;;;;;;;6489103;46;8955;-55
2023/10/02 21:48:24;;;;;;;;;15.67;12.00;;;;;;;;6488065;47;8890;-58
2023/10/02 21:54:27;;;;;;;;;14.33;13.00;;;;;;;;6488490;39;8959;-54
2023/10/02 22:00:46;;;;;;;;;15.67;13.67;;;;;;;;6310086;39;10000445;-55
2023/10/02 22:06:51;;;;;;;;;12.33;11.00;;;;;;;;6490176;39;8856;-53
2023/10/02 22:12:54;;;;;;;;;13.00;11.33;;;;;;;;6489922;46;8945;-59
2023/10/02 22:18:56;;;;;;;;;9.00;8.00;;;;;;;;6491220;39;9059;-57
2023/10/02 22:25:01;;;;;;;;;13.00;11.67;;;;;;;;6491152;39;8903;-57
2023/10/02 22:31:05;;;;;;;;;17.33;13.33;;;;;;;;6491762;31;8904;-55
2023/10/02 22:37:13;;;;;;;;;14.33;14.33;;;;;;;;6489705;46;8974;-55
2023/10/02 22:43:17;;;;;;;;;14.00;10.67;;;;;;;;6490694;39;8852;-55
2023/10/02 22:49:20;;;;;;;;;17.67;16.33;;;;;;;;6490435;31;8863;-54
2023/10/02 22:55:23;;;;;;;;;14.33;14.33;;;;;;;;6490093;39;8930;-56
2023/10/02 23:01:27;;;;;;;;;13.67;12.33;;;;;;;;6490518;46;8931;-55
2023/10/02 23:07:32;;;;;;;;;13.00;13.00;;;;;;;;6490834;39;8860;-51
2023/10/02 23:13:37;;;;;;;;;14.33;11.67;;;;;;;;6490097;39;9010;-54
2023/10/02 23:19:40;;;;;;;;;13.33;12.67;;;;;;;;6490247;39;8995;-55
2023/10/02 23:25:44;;;;;;;;;15.33;14.00;;;;;;;;6489463;39;9117;-56
2023/10/02 23:31:47;;;;;;;;;11.00;10.67;;;;;;;;6489685;46;9024;-52
2023/10/02 23:37:57;;;;;;;;;10.00;10.00;;;;;;;;6490251;39;8835;-55
2023/10/02 23:43:59;;;;;;;;;12.00;10.00;;;;;;;;6489366;39;8915;-57
2023/10/02 23:50:05;;;;;;;;;15.00;13.33;;;;;;;;6489225;31;9502;-56
2023/10/02 23:56:12;;;;;;;;;10.33;10.33;;;;;;;;6489478;46;8864;-54
